首页
METAR-TAF:

METAR-TAF

机场 :

因纽维克, 西北特區, 加拿大

纬度: 68-18N, 经度: 133-29W, 海拔: 59米

当前天气观测

该预报发布于37分钟前的04:21 UTC
风速9节,风向
温度 -20°C
湿度 77%
气压 1016 hPa
能見度: 1.6公里
冰针, 低吹雪

METAR: CYEV 250421Z 35009KT 1SM R06/P6000FT/D IC DRSN VV009 M20/M23 A3001 RMK IC8 SLP173

时间: 21:58 (04:58 UTC)

预报

该预报发布于28分钟前的04:30 UTC
预报有效从25日的 04点(UTC)到 25日的 13点(UTC)
风速8节,风向,有时为18节阵风
能見度: 8.0公里
阴天层高于2000英尺
冰针
短暂存在
从 25日的 04点(UTC)到 25日的 13点(UTC)
能見度: 1.6公里
层高于800英尺
小雪

TAF: CYEV 250430Z 2504/2513 35008G18KT 5SM IC OVC020 TEMPO 2504/2513 1SM -SN VV008 RMK NXT FCST BY 250700Z

超过4000个机场的气象观测和天气预报(METAR&TAF报告)。

可查询的气象台以黄色和红色小点在地图上表示。

将鼠标移到小点上方,可查看气象台名称。

然后点击查看天气观测和预报。

如需切换地图:点击带黑十字的绿色按钮放大地图;点击带横线的绿色按钮缩小地图;或者点击绿色箭头查看邻近地区的地图。


METAR-TAF: